sensor_id;sensor_type;location;lat;lon;timestamp;temperature;humidity
18541;DHT22;9400;50.924;5.328;2022-11-15T00:01:09;11.40;99.90
18541;DHT22;9400;50.924;5.328;2022-11-15T00:03:37;11.50;99.90
18541;DHT22;9400;50.924;5.328;2022-11-15T00:06:05;11.50;99.90
18541;DHT22;9400;50.924;5.328;2022-11-15T00:08:33;11.50;99.90
18541;DHT22;9400;50.924;5.328;2022-11-15T00:11:03;11.50;99.90
18541;DHT22;9400;50.924;5.328;2022-11-15T00:13:31;11.60;99.90
18541;DHT22;9400;50.924;5.328;2022-11-15T00:16:00;11.50;99.90
18541;DHT22;9400;50.924;5.328;2022-11-15T00:18:30;11.60;99.90
18541;DHT22;9400;50.924;5.328;2022-11-15T00:21:04;11.60;99.90
18541;DHT22;9400;50.924;5.328;2022-11-15T00:23:33;11.60;99.90
18541;DHT22;9400;50.924;5.328;2022-11-15T00:26:02;11.60;99.90
18541;DHT22;9400;50.924;5.328;2022-11-15T00:28:30;11.60;99.90
18541;DHT22;9400;50.924;5.328;2022-11-15T00:31:01;11.60;99.90
18541;DHT22;9400;50.924;5.328;2022-11-15T00:33:31;11.60;99.90
18541;DHT22;9400;50.924;5.328;2022-11-15T00:36:02;11.60;99.90
18541;DHT22;9400;50.924;5.328;2022-11-15T00:38:31;11.60;99.90
18541;DHT22;9400;50.924;5.328;2022-11-15T00:41:00;11.60;99.90
18541;DHT22;9400;50.924;5.328;2022-11-15T00:43:32;11.60;99.90
18541;DHT22;9400;50.924;5.328;2022-11-15T00:45:59;11.60;99.90
18541;DHT22;9400;50.924;5.328;2022-11-15T00:48:28;11.70;99.90
18541;DHT22;9400;50.924;5.328;2022-11-15T00:50:56;11.70;99.90
18541;DHT22;9400;50.924;5.328;2022-11-15T00:53:25;11.70;99.90
18541;DHT22;9400;50.924;5.328;2022-11-15T00:55:53;11.80;99.90
18541;DHT22;9400;50.924;5.328;2022-11-15T00:58:21;11.80;99.90
18541;DHT22;9400;50.924;5.328;2022-11-15T01:00:51;11.70;99.90
18541;DHT22;9400;50.924;5.328;2022-11-15T01:03:18;11.80;99.90
18541;DHT22;9400;50.924;5.328;2022-11-15T01:05:46;11.80;99.90
18541;DHT22;9400;50.924;5.328;2022-11-15T01:08:14;11.80;99.90
18541;DHT22;9400;50.924;5.328;2022-11-15T01:10:42;11.80;99.90
18541;DHT22;9400;50.924;5.328;2022-11-15T01:13:10;11.80;99.90
18541;DHT22;9400;50.924;5.328;2022-11-15T01:15:40;11.90;99.90
18541;DHT22;9400;50.924;5.328;2022-11-15T01:18:09;11.90;99.90
18541;DHT22;9400;50.924;5.328;2022-11-15T01:20:40;11.90;99.90
18541;DHT22;9400;50.924;5.328;2022-11-15T01:23:08;11.90;99.90
18541;DHT22;9400;50.924;5.328;2022-11-15T01:25:36;11.90;99.90
18541;DHT22;9400;50.924;5.328;2022-11-15T01:28:04;11.90;99.90
18541;DHT22;9400;50.924;5.328;2022-11-15T01:30:32;11.90;99.90
18541;DHT22;9400;50.924;5.328;2022-11-15T01:32:59;11.90;99.90
18541;DHT22;9400;50.924;5.328;2022-11-15T01:35:28;11.90;99.90
18541;DHT22;9400;50.924;5.328;2022-11-15T01:37:57;11.90;99.90
18541;DHT22;9400;50.924;5.328;2022-11-15T01:40:25;12.00;99.90
18541;DHT22;9400;50.924;5.328;2022-11-15T01:42:53;11.90;99.90
18541;DHT22;9400;50.924;5.328;2022-11-15T01:45:22;11.90;99.90
18541;DHT22;9400;50.924;5.328;2022-11-15T01:47:52;11.90;99.90
18541;DHT22;9400;50.924;5.328;2022-11-15T01:50:24;12.00;99.90
18541;DHT22;9400;50.924;5.328;2022-11-15T01:52:56;12.00;99.90
18541;DHT22;9400;50.924;5.328;2022-11-15T01:55:28;12.00;99.90
18541;DHT22;9400;50.924;5.328;2022-11-15T01:57:59;12.00;99.90
18541;DHT22;9400;50.924;5.328;2022-11-15T02:00:28;12.00;99.90
18541;DHT22;9400;50.924;5.328;2022-11-15T02:02:56;12.00;99.90
18541;DHT22;9400;50.924;5.328;2022-11-15T02:05:23;12.10;99.90
18541;DHT22;9400;50.924;5.328;2022-11-15T02:07:51;12.10;99.90
18541;DHT22;9400;50.924;5.328;2022-11-15T02:10:22;12.10;99.90
18541;DHT22;9400;50.924;5.328;2022-11-15T02:12:51;12.10;99.90
18541;DHT22;9400;50.924;5.328;2022-11-15T02:15:19;12.10;99.90
18541;DHT22;9400;50.924;5.328;2022-11-15T02:17:56;12.20;99.90
18541;DHT22;9400;50.924;5.328;2022-11-15T02:20:41;12.20;99.90
18541;DHT22;9400;50.924;5.328;2022-11-15T02:29:07;12.20;99.90
18541;DHT22;9400;50.924;5.328;2022-11-15T02:31:44;12.30;99.90
18541;DHT22;9400;50.924;5.328;2022-11-15T02:34:21;12.30;99.90
18541;DHT22;9400;50.924;5.328;2022-11-15T02:37:01;12.30;99.90
18541;DHT22;9400;50.924;5.328;2022-11-15T02:39:36;12.30;99.90
18541;DHT22;9400;50.924;5.328;2022-11-15T02:42:11;12.30;99.90
18541;DHT22;9400;50.924;5.328;2022-11-15T02:44:57;12.40;99.90
18541;DHT22;9400;50.924;5.328;2022-11-15T02:47:29;12.30;99.90
18541;DHT22;9400;50.924;5.328;2022-11-15T02:50:02;12.30;99.90
18541;DHT22;9400;50.924;5.328;2022-11-15T02:52:30;12.30;99.90
18541;DHT22;9400;50.924;5.328;2022-11-15T02:54:59;12.30;99.90
18541;DHT22;9400;50.924;5.328;2022-11-15T02:57:41;12.40;99.90
18541;DHT22;9400;50.924;5.328;2022-11-15T03:00:15;12.30;99.90
18541;DHT22;9400;50.924;5.328;2022-11-15T03:03:08;12.30;99.90
18541;DHT22;9400;50.924;5.328;2022-11-15T03:05:44;12.40;99.90
18541;DHT22;9400;50.924;5.328;2022-11-15T03:08:20;12.30;99.90
18541;DHT22;9400;50.924;5.328;2022-11-15T03:10:57;12.30;99.90
18541;DHT22;9400;50.924;5.328;2022-11-15T03:13:36;12.30;99.90
18541;DHT22;9400;50.924;5.328;2022-11-15T03:16:09;12.30;99.90
18541;DHT22;9400;50.924;5.328;2022-11-15T03:18:45;12.30;99.90
18541;DHT22;9400;50.924;5.328;2022-11-15T03:21:16;12.30;99.90
18541;DHT22;9400;50.924;5.328;2022-11-15T03:23:47;12.30;99.90
18541;DHT22;9400;50.924;5.328;2022-11-15T03:26:17;12.30;99.90
18541;DHT22;9400;50.924;5.328;2022-11-15T03:28:51;12.30;99.90
18541;DHT22;9400;50.924;5.328;2022-11-15T03:31:20;12.30;99.90
18541;DHT22;9400;50.924;5.328;2022-11-15T03:34:13;12.30;99.90
18541;DHT22;9400;50.924;5.328;2022-11-15T03:36:43;12.30;99.90
18541;DHT22;9400;50.924;5.328;2022-11-15T03:39:12;12.30;99.90
18541;DHT22;9400;50.924;5.328;2022-11-15T03:41:46;12.30;99.90
18541;DHT22;9400;50.924;5.328;2022-11-15T03:44:20;12.30;99.90
18541;DHT22;9400;50.924;5.328;2022-11-15T03:46:57;12.20;99.90
18541;DHT22;9400;50.924;5.328;2022-11-15T03:49:32;12.20;99.90
18541;DHT22;9400;50.924;5.328;2022-11-15T03:52:02;12.20;99.90
18541;DHT22;9400;50.924;5.328;2022-11-15T03:54:30;12.20;99.90
18541;DHT22;9400;50.924;5.328;2022-11-15T03:56:57;12.20;99.90
18541;DHT22;9400;50.924;5.328;2022-11-15T03:59:25;12.10;99.90
18541;DHT22;9400;50.924;5.328;2022-11-15T04:01:54;12.10;99.90
18541;DHT22;9400;50.924;5.328;2022-11-15T04:04:22;12.20;99.90
18541;DHT22;9400;50.924;5.328;2022-11-15T04:06:52;12.20;99.90
18541;DHT22;9400;50.924;5.328;2022-11-15T04:09:20;12.20;99.90
18541;DHT22;9400;50.924;5.328;2022-11-15T04:11:49;12.20;99.90
18541;DHT22;9400;50.924;5.328;2022-11-15T04:14:17;12.10;99.90
18541;DHT22;9400;50.924;5.328;2022-11-15T04:16:44;12.10;99.90
18541;DHT22;9400;50.924;5.328;2022-11-15T04:19:12;12.20;99.90
18541;DHT22;9400;50.924;5.328;2022-11-15T04:21:58;12.10;99.90
18541;DHT22;9400;50.924;5.328;2022-11-15T04:24:43;12.10;99.90
18541;DHT22;9400;50.924;5.328;2022-11-15T04:27:11;12.10;99.90
18541;DHT22;9400;50.924;5.328;2022-11-15T04:29:39;12.10;99.90
18541;DHT22;9400;50.924;5.328;2022-11-15T04:32:07;12.10;99.90
18541;DHT22;9400;50.924;5.328;2022-11-15T04:34:36;12.20;99.90
18541;DHT22;9400;50.924;5.328;2022-11-15T04:37:07;12.10;99.90
18541;DHT22;9400;50.924;5.328;2022-11-15T04:39:43;12.20;99.90
18541;DHT22;9400;50.924;5.328;2022-11-15T04:42:11;12.20;99.90
18541;DHT22;9400;50.924;5.328;2022-11-15T04:44:38;12.20;99.90
18541;DHT22;9400;50.924;5.328;2022-11-15T04:47:06;12.20;99.90
18541;DHT22;9400;50.924;5.328;2022-11-15T04:49:33;12.20;99.90
18541;DHT22;9400;50.924;5.328;2022-11-15T04:52:01;12.20;99.90
18541;DHT22;9400;50.924;5.328;2022-11-15T04:54:30;12.20;99.90
18541;DHT22;9400;50.924;5.328;2022-11-15T04:56:59;12.20;99.90
18541;DHT22;9400;50.924;5.328;2022-11-15T04:59:27;12.00;99.90
18541;DHT22;9400;50.924;5.328;2022-11-15T05:01:55;11.90;99.90
18541;DHT22;9400;50.924;5.328;2022-11-15T05:04:23;11.70;99.90
18541;DHT22;9400;50.924;5.328;2022-11-15T05:06:51;11.60;99.90
18541;DHT22;9400;50.924;5.328;2022-11-15T05:09:20;11.40;99.90
18541;DHT22;9400;50.924;5.328;2022-11-15T05:11:49;11.40;99.90
18541;DHT22;9400;50.924;5.328;2022-11-15T05:14:17;11.30;99.90
18541;DHT22;9400;50.924;5.328;2022-11-15T05:16:45;11.40;99.90
18541;DHT22;9400;50.924;5.328;2022-11-15T05:19:13;11.30;99.90
18541;DHT22;9400;50.924;5.328;2022-11-15T05:21:40;11.30;99.90
18541;DHT22;9400;50.924;5.328;2022-11-15T05:24:10;11.30;99.90
18541;DHT22;9400;50.924;5.328;2022-11-15T05:26:37;11.30;99.90
18541;DHT22;9400;50.924;5.328;2022-11-15T05:29:08;11.30;99.90
18541;DHT22;9400;50.924;5.328;2022-11-15T05:31:39;11.30;99.90
18541;DHT22;9400;50.924;5.328;2022-11-15T05:34:08;11.30;99.90
18541;DHT22;9400;50.924;5.328;2022-11-15T05:36:38;11.30;99.90
18541;DHT22;9400;50.924;5.328;2022-11-15T05:39:07;11.30;99.90
18541;DHT22;9400;50.924;5.328;2022-11-15T05:41:38;11.40;99.90
18541;DHT22;9400;50.924;5.328;2022-11-15T05:44:11;11.40;99.90
18541;DHT22;9400;50.924;5.328;2022-11-15T05:46:40;11.30;99.90
18541;DHT22;9400;50.924;5.328;2022-11-15T05:49:13;11.40;99.90
18541;DHT22;9400;50.924;5.328;2022-11-15T05:51:43;11.40;99.90
18541;DHT22;9400;50.924;5.328;2022-11-15T05:54:12;11.30;99.90
18541;DHT22;9400;50.924;5.328;2022-11-15T05:56:41;11.30;99.90
18541;DHT22;9400;50.924;5.328;2022-11-15T05:59:11;11.20;99.90
18541;DHT22;9400;50.924;5.328;2022-11-15T06:01:39;11.30;99.90
18541;DHT22;9400;50.924;5.328;2022-11-15T06:04:08;11.30;99.90
18541;DHT22;9400;50.924;5.328;2022-11-15T06:06:36;11.20;99.90
18541;DHT22;9400;50.924;5.328;2022-11-15T06:09:03;11.30;99.90
18541;DHT22;9400;50.924;5.328;2022-11-15T06:11:34;11.20;99.90
18541;DHT22;9400;50.924;5.328;2022-11-15T06:14:02;11.20;99.90
18541;DHT22;9400;50.924;5.328;2022-11-15T06:16:31;11.20;99.90
18541;DHT22;9400;50.924;5.328;2022-11-15T06:18:59;11.20;99.90
18541;DHT22;9400;50.924;5.328;2022-11-15T06:21:26;11.20;99.90
18541;DHT22;9400;50.924;5.328;2022-11-15T06:23:55;11.10;99.90
18541;DHT22;9400;50.924;5.328;2022-11-15T06:26:23;11.20;99.90
18541;DHT22;9400;50.924;5.328;2022-11-15T06:28:50;11.10;99.90
18541;DHT22;9400;50.924;5.328;2022-11-15T06:31:18;11.10;99.90
18541;DHT22;9400;50.924;5.328;2022-11-15T06:33:48;11.10;99.90
18541;DHT22;9400;50.924;5.328;2022-11-15T06:36:17;11.10;99.90
18541;DHT22;9400;50.924;5.328;2022-11-15T06:38:44;11.10;99.90
18541;DHT22;9400;50.924;5.328;2022-11-15T06:41:13;11.00;99.90
18541;DHT22;9400;50.924;5.328;2022-11-15T06:43:42;10.90;99.90
18541;DHT22;9400;50.924;5.328;2022-11-15T06:46:10;10.80;99.90
18541;DHT22;9400;50.924;5.328;2022-11-15T06:48:38;10.70;99.90
18541;DHT22;9400;50.924;5.328;2022-11-15T06:51:08;10.80;99.90
18541;DHT22;9400;50.924;5.328;2022-11-15T06:53:36;10.70;99.90
18541;DHT22;9400;50.924;5.328;2022-11-15T06:56:06;10.70;99.90
18541;DHT22;9400;50.924;5.328;2022-11-15T06:58:35;10.70;99.90
18541;DHT22;9400;50.924;5.328;2022-11-15T07:01:04;10.80;99.90
18541;DHT22;9400;50.924;5.328;2022-11-15T07:03:34;10.80;99.90
18541;DHT22;9400;50.924;5.328;2022-11-15T07:06:04;10.80;99.90
18541;DHT22;9400;50.924;5.328;2022-11-15T07:08:34;10.80;99.90
18541;DHT22;9400;50.924;5.328;2022-11-15T07:11:04;10.70;99.90
18541;DHT22;9400;50.924;5.328;2022-11-15T07:13:34;10.80;99.90
18541;DHT22;9400;50.924;5.328;2022-11-15T07:16:04;10.70;99.90
18541;DHT22;9400;50.924;5.328;2022-11-15T07:18:35;10.70;99.90
18541;DHT22;9400;50.924;5.328;2022-11-15T07:21:04;10.70;99.90
18541;DHT22;9400;50.924;5.328;2022-11-15T07:23:36;10.70;99.90
18541;DHT22;9400;50.924;5.328;2022-11-15T07:26:07;10.70;99.90
18541;DHT22;9400;50.924;5.328;2022-11-15T07:28:36;10.60;99.90
18541;DHT22;9400;50.924;5.328;2022-11-15T07:31:05;10.50;99.90
18541;DHT22;9400;50.924;5.328;2022-11-15T07:33:33;10.50;99.90
18541;DHT22;9400;50.924;5.328;2022-11-15T07:36:01;10.60;99.90
18541;DHT22;9400;50.924;5.328;2022-11-15T07:38:30;10.50;99.90
18541;DHT22;9400;50.924;5.328;2022-11-15T07:41:00;10.50;99.90
18541;DHT22;9400;50.924;5.328;2022-11-15T07:43:29;10.50;99.90
18541;DHT22;9400;50.924;5.328;2022-11-15T07:46:05;10.50;99.90
18541;DHT22;9400;50.924;5.328;2022-11-15T07:48:36;10.60;99.90
18541;DHT22;9400;50.924;5.328;2022-11-15T07:51:06;10.70;99.90
18541;DHT22;9400;50.924;5.328;2022-11-15T07:53:34;10.70;99.90
18541;DHT22;9400;50.924;5.328;2022-11-15T07:56:05;10.70;99.90
18541;DHT22;9400;50.924;5.328;2022-11-15T07:58:33;10.80;99.90
18541;DHT22;9400;50.924;5.328;2022-11-15T08:01:03;10.90;99.90
18541;DHT22;9400;50.924;5.328;2022-11-15T08:03:31;10.90;99.90
18541;DHT22;9400;50.924;5.328;2022-11-15T08:05:59;11.00;99.90
18541;DHT22;9400;50.924;5.328;2022-11-15T08:08:27;11.00;99.90
18541;DHT22;9400;50.924;5.328;2022-11-15T08:10:56;11.00;99.90
18541;DHT22;9400;50.924;5.328;2022-11-15T08:13:26;10.90;99.90
18541;DHT22;9400;50.924;5.328;2022-11-15T08:15:58;10.90;99.90
18541;DHT22;9400;50.924;5.328;2022-11-15T08:18:26;10.90;99.90
18541;DHT22;9400;50.924;5.328;2022-11-15T08:20:57;10.90;99.90
18541;DHT22;9400;50.924;5.328;2022-11-15T08:23:26;10.90;99.90
18541;DHT22;9400;50.924;5.328;2022-11-15T08:25:59;10.90;99.90
18541;DHT22;9400;50.924;5.328;2022-11-15T08:28:29;10.80;99.90
18541;DHT22;9400;50.924;5.328;2022-11-15T08:30:57;10.80;99.90
18541;DHT22;9400;50.924;5.328;2022-11-15T08:33:24;10.80;99.90
18541;DHT22;9400;50.924;5.328;2022-11-15T08:35:52;10.80;99.90
18541;DHT22;9400;50.924;5.328;2022-11-15T08:38:20;10.80;99.90
18541;DHT22;9400;50.924;5.328;2022-11-15T08:40:49;10.80;99.90
18541;DHT22;9400;50.924;5.328;2022-11-15T08:43:17;10.90;99.90
18541;DHT22;9400;50.924;5.328;2022-11-15T08:45:46;10.90;99.90
18541;DHT22;9400;50.924;5.328;2022-11-15T08:48:15;10.80;99.90
18541;DHT22;9400;50.924;5.328;2022-11-15T08:50:43;10.90;99.90
18541;DHT22;9400;50.924;5.328;2022-11-15T08:53:12;11.00;99.90
18541;DHT22;9400;50.924;5.328;2022-11-15T08:55:40;11.00;99.90
18541;DHT22;9400;50.924;5.328;2022-11-15T08:58:08;11.00;99.90
18541;DHT22;9400;50.924;5.328;2022-11-15T09:00:35;11.10;99.90
18541;DHT22;9400;50.924;5.328;2022-11-15T09:03:05;11.20;99.90
18541;DHT22;9400;50.924;5.328;2022-11-15T09:05:36;11.20;99.90
18541;DHT22;9400;50.924;5.328;2022-11-15T09:08:04;11.30;99.90
18541;DHT22;9400;50.924;5.328;2022-11-15T09:10:32;11.40;99.90
18541;DHT22;9400;50.924;5.328;2022-11-15T09:12:59;11.40;99.90
18541;DHT22;9400;50.924;5.328;2022-11-15T09:15:27;11.40;99.90
18541;DHT22;9400;50.924;5.328;2022-11-15T09:17:57;11.40;99.90
18541;DHT22;9400;50.924;5.328;2022-11-15T09:20:26;11.30;99.90
18541;DHT22;9400;50.924;5.328;2022-11-15T09:22:54;11.30;99.90
18541;DHT22;9400;50.924;5.328;2022-11-15T09:25:21;11.30;99.90
18541;DHT22;9400;50.924;5.328;2022-11-15T09:27:49;11.30;99.90
18541;DHT22;9400;50.924;5.328;2022-11-15T09:30:16;11.30;99.90
18541;DHT22;9400;50.924;5.328;2022-11-15T09:32:44;11.40;99.90
18541;DHT22;9400;50.924;5.328;2022-11-15T09:35:12;11.40;99.90
18541;DHT22;9400;50.924;5.328;2022-11-15T09:37:42;11.40;99.90
18541;DHT22;9400;50.924;5.328;2022-11-15T09:40:11;11.30;99.90
18541;DHT22;9400;50.924;5.328;2022-11-15T09:42:51;11.40;99.90
18541;DHT22;9400;50.924;5.328;2022-11-15T09:45:26;11.50;99.90
18541;DHT22;9400;50.924;5.328;2022-11-15T09:50:53;11.60;99.90
18541;DHT22;9400;50.924;5.328;2022-11-15T09:53:30;11.80;99.90
18541;DHT22;9400;50.924;5.328;2022-11-15T09:56:02;11.90;99.90
18541;DHT22;9400;50.924;5.328;2022-11-15T09:58:36;11.90;99.90
18541;DHT22;9400;50.924;5.328;2022-11-15T10:01:08;11.90;99.90
18541;DHT22;9400;50.924;5.328;2022-11-15T10:03:40;12.00;99.90
18541;DHT22;9400;50.924;5.328;2022-11-15T10:06:14;12.00;99.90
18541;DHT22;9400;50.924;5.328;2022-11-15T10:08:59;12.00;99.90
18541;DHT22;9400;50.924;5.328;2022-11-15T10:11:31;12.00;99.90
18541;DHT22;9400;50.924;5.328;2022-11-15T10:14:02;11.90;99.90
18541;DHT22;9400;50.924;5.328;2022-11-15T10:17:05;12.10;99.90
18541;DHT22;9400;50.924;5.328;2022-11-15T10:19:39;12.10;99.90
18541;DHT22;9400;50.924;5.328;2022-11-15T10:22:18;12.20;99.90
18541;DHT22;9400;50.924;5.328;2022-11-15T10:24:52;12.30;99.90
18541;DHT22;9400;50.924;5.328;2022-11-15T10:27:24;12.40;99.90
18541;DHT22;9400;50.924;5.328;2022-11-15T10:29:52;12.50;99.90
18541;DHT22;9400;50.924;5.328;2022-11-15T10:32:21;12.70;99.90
18541;DHT22;9400;50.924;5.328;2022-11-15T10:34:49;12.70;99.90
18541;DHT22;9400;50.924;5.328;2022-11-15T10:37:28;12.60;99.90
18541;DHT22;9400;50.924;5.328;2022-11-15T10:40:16;12.60;99.90
18541;DHT22;9400;50.924;5.328;2022-11-15T10:42:45;12.60;99.90
18541;DHT22;9400;50.924;5.328;2022-11-15T10:45:32;12.50;99.90
18541;DHT22;9400;50.924;5.328;2022-11-15T10:48:25;12.50;99.90
18541;DHT22;9400;50.924;5.328;2022-11-15T10:50:54;12.60;99.90
18541;DHT22;9400;50.924;5.328;2022-11-15T10:53:29;12.60;99.90
18541;DHT22;9400;50.924;5.328;2022-11-15T10:56:05;12.70;99.90
18541;DHT22;9400;50.924;5.328;2022-11-15T10:58:38;12.80;99.90
18541;DHT22;9400;50.924;5.328;2022-11-15T11:01:12;12.90;99.90
18541;DHT22;9400;50.924;5.328;2022-11-15T11:03:43;12.90;99.90
18541;DHT22;9400;50.924;5.328;2022-11-15T11:06:13;13.00;99.90
18541;DHT22;9400;50.924;5.328;2022-11-15T11:08:57;13.30;99.90
18541;DHT22;9400;50.924;5.328;2022-11-15T11:11:44;13.30;99.90
18541;DHT22;9400;50.924;5.328;2022-11-15T11:14:13;13.50;99.90
18541;DHT22;9400;50.924;5.328;2022-11-15T11:16:47;13.50;99.90
18541;DHT22;9400;50.924;5.328;2022-11-15T11:22:26;13.70;99.90
18541;DHT22;9400;50.924;5.328;2022-11-15T11:25:12;13.80;99.90
18541;DHT22;9400;50.924;5.328;2022-11-15T11:27:56;13.90;99.90
18541;DHT22;9400;50.924;5.328;2022-11-15T11:30:37;13.80;99.90
18541;DHT22;9400;50.924;5.328;2022-11-15T11:33:16;13.80;99.90
18541;DHT22;9400;50.924;5.328;2022-11-15T11:35:53;13.90;99.90
18541;DHT22;9400;50.924;5.328;2022-11-15T11:38:51;13.90;99.90
18541;DHT22;9400;50.924;5.328;2022-11-15T11:41:47;14.00;99.90
18541;DHT22;9400;50.924;5.328;2022-11-15T11:44:38;14.10;99.90
18541;DHT22;9400;50.924;5.328;2022-11-15T11:47:11;14.20;99.90
18541;DHT22;9400;50.924;5.328;2022-11-15T11:49:43;14.30;99.90
18541;DHT22;9400;50.924;5.328;2022-11-15T11:52:16;14.20;99.90
18541;DHT22;9400;50.924;5.328;2022-11-15T11:54:57;14.40;99.90
18541;DHT22;9400;50.924;5.328;2022-11-15T11:57:33;14.60;99.90
18541;DHT22;9400;50.924;5.328;2022-11-15T12:00:09;14.60;99.90
18541;DHT22;9400;50.924;5.328;2022-11-15T12:02:44;14.50;99.90
18541;DHT22;9400;50.924;5.328;2022-11-15T12:05:22;14.50;99.90
18541;DHT22;9400;50.924;5.328;2022-11-15T12:07:59;14.30;99.90
18541;DHT22;9400;50.924;5.328;2022-11-15T12:10:33;14.00;99.90
18541;DHT22;9400;50.924;5.328;2022-11-15T12:13:06;14.00;99.90
18541;DHT22;9400;50.924;5.328;2022-11-15T12:15:40;14.00;99.90
18541;DHT22;9400;50.924;5.328;2022-11-15T12:18:12;14.20;99.90
18541;DHT22;9400;50.924;5.328;2022-11-15T12:20:49;14.30;99.90
18541;DHT22;9400;50.924;5.328;2022-11-15T12:23:23;14.50;99.90
18541;DHT22;9400;50.924;5.328;2022-11-15T12:25:54;14.30;99.90
18541;DHT22;9400;50.924;5.328;2022-11-15T12:28:31;14.20;99.90
18541;DHT22;9400;50.924;5.328;2022-11-15T12:31:09;14.10;99.90
18541;DHT22;9400;50.924;5.328;2022-11-15T12:33:41;14.10;99.90
18541;DHT22;9400;50.924;5.328;2022-11-15T12:36:11;14.10;99.90
18541;DHT22;9400;50.924;5.328;2022-11-15T12:38:56;14.10;99.90
18541;DHT22;9400;50.924;5.328;2022-11-15T12:41:27;14.10;99.90
18541;DHT22;9400;50.924;5.328;2022-11-15T12:43:55;14.20;99.90
18541;DHT22;9400;50.924;5.328;2022-11-15T12:46:59;14.30;99.90
18541;DHT22;9400;50.924;5.328;2022-11-15T12:49:46;14.40;99.90
18541;DHT22;9400;50.924;5.328;2022-11-15T12:52:14;14.40;99.90
18541;DHT22;9400;50.924;5.328;2022-11-15T12:55:08;14.50;99.90
18541;DHT22;9400;50.924;5.328;2022-11-15T12:57:52;14.50;99.90
18541;DHT22;9400;50.924;5.328;2022-11-15T13:00:43;14.50;99.90
18541;DHT22;9400;50.924;5.328;2022-11-15T13:03:25;14.40;99.90
18541;DHT22;9400;50.924;5.328;2022-11-15T13:06:08;14.50;99.90
18541;DHT22;9400;50.924;5.328;2022-11-15T13:08:48;14.50;99.90
18541;DHT22;9400;50.924;5.328;2022-11-15T13:14:39;14.60;99.90
18541;DHT22;9400;50.924;5.328;2022-11-15T13:17:23;14.60;99.90
18541;DHT22;9400;50.924;5.328;2022-11-15T13:19:59;14.50;99.90
18541;DHT22;9400;50.924;5.328;2022-11-15T13:22:27;14.50;99.90
18541;DHT22;9400;50.924;5.328;2022-11-15T13:28:32;14.50;99.90
18541;DHT22;9400;50.924;5.328;2022-11-15T13:31:03;14.60;99.90
18541;DHT22;9400;50.924;5.328;2022-11-15T13:33:33;14.50;99.90
18541;DHT22;9400;50.924;5.328;2022-11-15T13:36:05;14.60;99.90
18541;DHT22;9400;50.924;5.328;2022-11-15T13:38:35;14.50;99.90
18541;DHT22;9400;50.924;5.328;2022-11-15T13:41:18;14.60;99.90
18541;DHT22;9400;50.924;5.328;2022-11-15T13:43:46;14.70;99.90
18541;DHT22;9400;50.924;5.328;2022-11-15T13:46:17;14.70;99.90
18541;DHT22;9400;50.924;5.328;2022-11-15T13:48:46;14.70;99.90
18541;DHT22;9400;50.924;5.328;2022-11-15T13:51:19;14.70;99.90
18541;DHT22;9400;50.924;5.328;2022-11-15T13:53:51;14.70;99.90
18541;DHT22;9400;50.924;5.328;2022-11-15T13:56:20;14.70;99.90
18541;DHT22;9400;50.924;5.328;2022-11-15T13:58:48;14.70;99.90
18541;DHT22;9400;50.924;5.328;2022-11-15T14:01:18;14.70;99.90
18541;DHT22;9400;50.924;5.328;2022-11-15T14:03:55;14.60;99.90
18541;DHT22;9400;50.924;5.328;2022-11-15T14:06:28;14.60;99.90
18541;DHT22;9400;50.924;5.328;2022-11-15T14:09:30;14.60;99.90
18541;DHT22;9400;50.924;5.328;2022-11-15T14:12:00;14.50;99.90
18541;DHT22;9400;50.924;5.328;2022-11-15T14:14:29;14.50;99.90
18541;DHT22;9400;50.924;5.328;2022-11-15T14:16:58;14.50;99.90
18541;DHT22;9400;50.924;5.328;2022-11-15T14:19:44;14.50;99.90
18541;DHT22;9400;50.924;5.328;2022-11-15T14:22:19;14.40;99.90
18541;DHT22;9400;50.924;5.328;2022-11-15T14:25:12;14.40;99.90
18541;DHT22;9400;50.924;5.328;2022-11-15T14:27:41;14.30;99.90
18541;DHT22;9400;50.924;5.328;2022-11-15T14:30:13;14.30;99.90
18541;DHT22;9400;50.924;5.328;2022-11-15T14:32:45;14.30;99.90
18541;DHT22;9400;50.924;5.328;2022-11-15T14:35:15;14.20;99.90
18541;DHT22;9400;50.924;5.328;2022-11-15T14:37:45;14.10;99.90
18541;DHT22;9400;50.924;5.328;2022-11-15T14:40:15;14.10;99.90
18541;DHT22;9400;50.924;5.328;2022-11-15T14:42:44;14.10;99.90
18541;DHT22;9400;50.924;5.328;2022-11-15T14:45:16;14.10;99.90
18541;DHT22;9400;50.924;5.328;2022-11-15T14:47:45;14.10;99.90
18541;DHT22;9400;50.924;5.328;2022-11-15T14:50:14;14.10;99.90
18541;DHT22;9400;50.924;5.328;2022-11-15T14:52:44;14.10;99.90
18541;DHT22;9400;50.924;5.328;2022-11-15T14:55:16;14.10;99.90
18541;DHT22;9400;50.924;5.328;2022-11-15T14:57:45;14.10;99.90
18541;DHT22;9400;50.924;5.328;2022-11-15T15:00:14;14.10;99.90
18541;DHT22;9400;50.924;5.328;2022-11-15T15:02:42;14.10;99.90
18541;DHT22;9400;50.924;5.328;2022-11-15T15:05:16;14.10;99.90
18541;DHT22;9400;50.924;5.328;2022-11-15T15:07:46;14.10;99.90
18541;DHT22;9400;50.924;5.328;2022-11-15T15:10:17;14.10;99.90
18541;DHT22;9400;50.924;5.328;2022-11-15T15:12:45;14.10;99.90
18541;DHT22;9400;50.924;5.328;2022-11-15T16:03:29;13.30;99.90
18541;DHT22;9400;50.924;5.328;2022-11-15T16:05:58;13.20;99.90
18541;DHT22;9400;50.924;5.328;2022-11-15T16:08:26;13.20;99.90
18541;DHT22;9400;50.924;5.328;2022-11-15T16:10:56;13.20;99.90
18541;DHT22;9400;50.924;5.328;2022-11-15T16:13:23;13.10;99.90
18541;DHT22;9400;50.924;5.328;2022-11-15T16:15:52;13.10;99.90
18541;DHT22;9400;50.924;5.328;2022-11-15T16:18:21;13.10;99.90
18541;DHT22;9400;50.924;5.328;2022-11-15T16:20:51;13.00;99.90
18541;DHT22;9400;50.924;5.328;2022-11-15T16:23:25;13.00;99.90
18541;DHT22;9400;50.924;5.328;2022-11-15T16:25:54;12.90;99.90
18541;DHT22;9400;50.924;5.328;2022-11-15T16:28:23;12.90;99.90
18541;DHT22;9400;50.924;5.328;2022-11-15T16:31:00;12.80;99.90
18541;DHT22;9400;50.924;5.328;2022-11-15T16:33:28;12.80;99.90
18541;DHT22;9400;50.924;5.328;2022-11-15T16:35:57;12.80;99.90
18541;DHT22;9400;50.924;5.328;2022-11-15T16:38:25;12.70;99.90
18541;DHT22;9400;50.924;5.328;2022-11-15T16:40:52;12.70;99.90
18541;DHT22;9400;50.924;5.328;2022-11-15T16:43:20;12.70;99.90
18541;DHT22;9400;50.924;5.328;2022-11-15T16:45:49;12.60;99.90
18541;DHT22;9400;50.924;5.328;2022-11-15T16:48:22;12.50;99.90
18541;DHT22;9400;50.924;5.328;2022-11-15T16:50:50;12.50;99.90
18541;DHT22;9400;50.924;5.328;2022-11-15T16:53:20;12.40;99.90
18541;DHT22;9400;50.924;5.328;2022-11-15T16:55:48;12.40;99.90
18541;DHT22;9400;50.924;5.328;2022-11-15T16:58:16;12.40;99.90
18541;DHT22;9400;50.924;5.328;2022-11-15T17:00:44;12.40;99.90
18541;DHT22;9400;50.924;5.328;2022-11-15T17:03:12;12.40;99.90
18541;DHT22;9400;50.924;5.328;2022-11-15T17:05:42;12.40;99.90
18541;DHT22;9400;50.924;5.328;2022-11-15T17:08:10;12.40;99.90
18541;DHT22;9400;50.924;5.328;2022-11-15T17:10:39;12.40;99.90
18541;DHT22;9400;50.924;5.328;2022-11-15T17:13:10;12.40;99.90
18541;DHT22;9400;50.924;5.328;2022-11-15T17:15:38;12.40;99.90
18541;DHT22;9400;50.924;5.328;2022-11-15T17:18:10;12.50;99.90
18541;DHT22;9400;50.924;5.328;2022-11-15T17:20:41;12.40;99.90